Time;durP1;ratioP1;P1;durP2;ratioP2;P2;SDS_P1;SDS_P2;PMS_P1;PMS_P2;Temp;Humidity;BMP_temperature;BMP_pressure;BME280_temperature;BME280_humidity;BME280_pressure;Samples;Min_cycle;Max_cycle;Signal;HPM_P1;HPM_P2
2022/07/28 00:00:42;;;;;;;0.10;0.10;;;;;;;22.14;46.33;98349.47;5056332;28;20050;-77
2022/07/28 00:03:09;;;;;;;0.10;0.10;;;;;;;22.35;47.11;98348.44;5051661;28;20060;-78
2022/07/28 00:05:36;;;;;;;0.10;0.10;;;;;;;22.39;46.63;98349.88;5052984;28;20147;-77
2022/07/28 00:08:03;;;;;;;0.10;0.10;;;;;;;22.41;48.09;98336.41;5059654;28;20131;-78
2022/07/28 00:10:31;;;;;;;0.10;0.10;;;;;;;22.40;46.21;98338.22;5068130;28;20072;-77
2022/07/28 00:12:58;;;;;;;0.10;0.10;;;;;;;22.55;46.72;98336.03;5058641;28;20064;-78
2022/07/28 00:15:26;;;;;;;0.10;0.10;;;;;;;22.56;46.54;98337.72;5052649;28;20052;-78
2022/07/28 00:17:52;;;;;;;0.10;0.10;;;;;;;22.63;46.43;98330.03;5058124;28;20086;-77
2022/07/28 00:20:19;;;;;;;0.13;0.13;;;;;;;22.46;46.28;98334.19;5055968;28;20122;-77
2022/07/28 00:22:46;;;;;;;0.10;0.10;;;;;;;22.38;46.35;98336.66;5067548;28;20526;-77
2022/07/28 00:25:12;;;;;;;0.10;0.10;;;;;;;22.18;47.40;98330.38;5062096;28;20168;-77
2022/07/28 00:27:39;;;;;;;0.15;0.15;;;;;;;22.35;47.70;98326.25;5052845;28;20139;-77
2022/07/28 00:30:07;;;;;;;0.10;0.10;;;;;;;22.26;46.99;98321.72;5052342;28;20049;-78
2022/07/28 00:32:33;;;;;;;0.10;0.10;;;;;;;22.45;47.06;98333.34;5057129;28;20064;-77
2022/07/28 00:35:00;;;;;;;0.10;0.10;;;;;;;22.13;46.99;98321.94;5054896;28;20082;-77
2022/07/28 00:37:28;;;;;;;0.10;0.10;;;;;;;21.88;47.36;98325.88;5050279;28;20044;-78
2022/07/28 00:39:55;;;;;;;0.10;0.10;;;;;;;22.20;47.41;98319.59;5057018;28;20529;-77
2022/07/28 00:42:22;;;;;;;0.10;0.10;;;;;;;22.33;46.80;98314.88;5058507;28;20052;-77
2022/07/28 00:44:48;;;;;;;0.00;0.00;;;;;;;22.46;46.76;98310.97;5057803;28;20075;-77
2022/07/28 00:47:15;;;;;;;0.10;0.10;;;;;;;22.48;46.41;98314.34;5051426;28;20056;-78
2022/07/28 00:49:44;;;;;;;0.10;0.10;;;;;;;22.27;47.52;98324.25;5049897;28;20144;-77
2022/07/28 00:52:11;;;;;;;0.10;0.10;;;;;;;21.98;47.88;98315.28;5062224;28;20780;-77
2022/07/28 00:54:38;;;;;;;0.10;0.10;;;;;;;21.74;47.77;98318.19;5058304;28;20135;-76
2022/07/28 00:57:04;;;;;;;0.10;0.10;;;;;;;21.62;48.44;98323.72;5057479;28;20057;-76
2022/07/28 00:59:31;;;;;;;0.10;0.10;;;;;;;21.79;47.99;98326.66;5055260;28;20077;-78
2022/07/28 01:01:59;;;;;;;0.10;0.10;;;;;;;22.00;49.11;98318.66;5055576;28;20082;-77
2022/07/28 01:04:27;;;;;;;0.10;0.10;;;;;;;22.00;47.69;98318.66;5048083;28;20130;-77
2022/07/28 01:07:01;;;;;;;0.10;0.10;;;;;;;22.03;48.03;98315.72;5047784;28;20049;-77
2022/07/28 01:09:45;;;;;;;0.10;0.10;;;;;;;21.85;47.53;98307.47;5059736;28;20080;-75
2022/07/28 01:12:42;;;;;;;0.10;0.10;;;;;;;21.71;48.27;98313.13;5056363;28;20044;-76
2022/07/28 01:15:24;;;;;;;0.10;0.10;;;;;;;21.78;49.07;98313.47;5059226;28;20083;-77
2022/07/28 01:17:54;;;;;;;0.10;0.10;;;;;;;21.55;48.52;98302.06;5055015;28;20483;-78
2022/07/28 01:20:59;;;;;;;0.10;0.10;;;;;;;21.34;49.01;98311.88;5051588;28;20371;-76
2022/07/28 01:23:31;;;;;;;0.10;0.10;;;;;;;21.51;49.48;98313.13;5042207;28;20738;-77
2022/07/28 01:26:28;;;;;;;0.10;0.10;;;;;;;21.35;49.28;98310.91;5060573;28;20132;-76
2022/07/28 01:29:01;;;;;;;0.10;0.10;;;;;;;21.35;49.65;98305.59;5055278;28;20097;-77
2022/07/28 01:31:36;;;;;;;0.10;0.10;;;;;;;21.57;49.77;98299.28;5055239;28;20188;-77
2022/07/28 01:34:09;;;;;;;0.10;0.10;;;;;;;21.90;49.08;98299.94;5071268;28;20056;-76
2022/07/28 01:36:52;;;;;;;0.10;0.10;;;;;;;21.73;48.29;98297.00;5051232;28;20068;-76
2022/07/28 01:39:19;;;;;;;0.20;0.20;;;;;;;21.70;48.10;98295.44;5046369;28;20131;-77
2022/07/28 01:41:47;;;;;;;0.10;0.10;;;;;;;21.64;48.22;98295.13;5051134;28;20045;-77
2022/07/28 01:44:20;;;;;;;0.10;0.10;;;;;;;21.40;49.34;98298.06;5057162;28;20550;-76
2022/07/28 01:46:51;;;;;;;0.10;0.10;;;;;;;21.29;49.32;98291.94;5058648;28;20067;-77
2022/07/28 01:49:20;;;;;;;0.10;0.10;;;;;;;21.16;49.51;98287.63;5054876;28;20053;-77
2022/07/28 01:51:47;;;;;;;0.10;0.10;;;;;;;21.29;50.01;98287.44;5060454;28;20420;-77
2022/07/28 01:54:14;;;;;;;0.10;0.10;;;;;;;21.10;49.70;98280.13;5051597;28;20142;-83
2022/07/28 01:56:42;;;;;;;0.10;0.10;;;;;;;21.23;49.36;98277.31;5054616;28;20048;-80
2022/07/28 01:59:10;;;;;;;0.10;0.10;;;;;;;21.03;50.12;98281.59;5054362;28;20049;-81
2022/07/28 02:01:42;;;;;;;0.10;0.10;;;;;;;21.08;50.48;98292.75;5055908;28;20077;-79
2022/07/28 02:04:09;;;;;;;0.10;0.10;;;;;;;21.42;50.17;98287.25;5057036;28;20571;-79
2022/07/28 02:06:38;;;;;;;0.10;0.10;;;;;;;21.62;49.88;98281.06;5061961;28;20076;-80
2022/07/28 02:09:05;;;;;;;0.10;0.10;;;;;;;21.57;49.00;98277.97;5046963;28;20073;-79
2022/07/28 02:11:39;;;;;;;0.10;0.10;;;;;;;21.77;48.65;98267.28;5047997;28;20457;-83
2022/07/28 02:14:14;;;;;;;0.10;0.10;;;;;;;21.59;48.57;98276.00;5053923;28;20083;-83
2022/07/28 02:16:49;;;;;;;0.10;0.10;;;;;;;21.54;49.46;98272.91;5049304;28;20053;-76
2022/07/28 02:19:17;;;;;;;0.10;0.10;;;;;;;21.38;49.49;98273.31;5059589;28;20056;-77
2022/07/28 02:21:48;;;;;;;0.10;0.10;;;;;;;21.05;49.81;98271.69;5056697;28;20117;-77
2022/07/28 02:24:18;;;;;;;0.10;0.10;;;;;;;20.85;50.65;98272.47;5065202;28;20072;-76
2022/07/28 02:27:08;;;;;;;0.10;0.10;;;;;;;21.12;49.88;98269.38;5056641;28;20087;-76
2022/07/28 02:29:44;;;;;;;0.10;0.10;;;;;;;21.14;49.85;98270.09;5054406;28;20048;-76
2022/07/28 02:32:28;;;;;;;0.10;0.10;;;;;;;21.51;49.07;98263.34;5058501;28;20480;-77
2022/07/28 02:35:04;;;;;;;0.10;0.10;;;;;;;21.42;50.02;98268.59;5061298;28;20063;-76
2022/07/28 02:37:37;;;;;;;0.10;0.10;;;;;;;21.63;49.34;98261.44;5064393;28;20060;-77
2022/07/28 02:40:04;;;;;;;;;;;;;;;21.52;49.11;98256.19;5055777;28;20045;-77
2022/07/28 02:42:32;;;;;;;0.10;0.10;;;;;;;21.00;49.93;98260.56;5071653;28;19925;-77
2022/07/28 02:45:02;;;;;;;0.10;0.10;;;;;;;20.79;50.98;98259.66;5063582;28;20131;-76
2022/07/28 02:47:31;;;;;;;0.10;0.10;;;;;;;20.48;51.50;98268.44;5069348;28;20175;-77
2022/07/28 02:50:00;;;;;;;0.10;0.10;;;;;;;20.59;50.98;98260.44;5055871;28;20084;-77
2022/07/28 02:52:27;;;;;;;0.10;0.10;;;;;;;20.99;51.56;98253.53;5063712;28;20060;-76
2022/07/28 02:54:55;;;;;;;0.10;0.10;;;;;;;21.11;50.71;98259.69;5060498;28;20072;-77
2022/07/28 02:57:23;;;;;;;0.10;0.10;;;;;;;21.26;50.57;98261.06;5061468;28;20144;-77
2022/07/28 02:59:51;;;;;;;0.10;0.10;;;;;;;21.29;49.88;98265.28;5053724;28;20576;-78
2022/07/28 03:02:21;;;;;;;0.10;0.10;;;;;;;21.34;50.97;98258.59;5051510;28;20072;-77
2022/07/28 03:05:01;;;;;;;0.10;0.10;;;;;;;21.39;49.27;98264.38;5061125;28;20143;-76
2022/07/28 03:07:35;;;;;;;0.10;0.10;;;;;;;21.33;50.56;98261.38;5063078;28;20056;-78
2022/07/28 03:10:24;;;;;;;0.10;0.10;;;;;;;21.46;49.73;98256.69;5060863;28;20053;-77
2022/07/28 03:13:01;;;;;;;0.10;0.10;;;;;;;21.55;48.72;98261.25;5058730;28;20052;-77
2022/07/28 03:15:28;;;;;;;0.10;0.10;;;;;;;21.59;49.77;98254.69;5048718;28;20059;-76
2022/07/28 03:17:55;;;;;;;0.10;0.10;;;;;;;21.31;49.62;98258.00;5054286;28;20080;-77
2022/07/28 03:20:21;;;;;;;0.10;0.10;;;;;;;21.31;50.59;98250.84;5053410;28;20485;-77
2022/07/28 03:22:48;;;;;;;0.10;0.10;;;;;;;21.25;50.55;98264.69;5067398;28;20044;-78
2022/07/28 03:25:19;;;;;;;0.10;0.10;;;;;;;21.30;50.36;98262.50;5054600;28;20067;-77
2022/07/28 03:27:51;;;;;;;0.10;0.10;;;;;;;21.36;50.35;98263.81;5045877;28;20071;-76
2022/07/28 03:30:27;;;;;;;0.10;0.10;;;;;;;21.41;49.87;98258.91;5049343;28;20669;-78
2022/07/28 03:32:57;;;;;;;0.10;0.10;;;;;;;21.51;49.65;98258.00;5057562;28;20052;-77
2022/07/28 03:35:24;;;;;;;0.10;0.10;;;;;;;21.56;49.75;98260.28;5049972;28;20056;-77
2022/07/28 03:38:13;;;;;;;0.10;0.10;;;;;;;21.39;50.07;98263.53;5043248;28;20500;-77
2022/07/28 03:40:43;;;;;;;0.10;0.10;;;;;;;21.48;50.12;98257.41;5059032;28;20051;-76
2022/07/28 03:43:13;;;;;;;0.10;0.10;;;;;;;21.29;50.53;98254.63;5055511;28;20044;-77
2022/07/28 03:45:40;;;;;;;0.10;0.10;;;;;;;21.25;51.16;98264.69;5065402;28;20175;-78
2022/07/28 03:48:12;;;;;;;0.10;0.10;;;;;;;21.32;50.78;98265.88;5064039;28;20057;-77
2022/07/28 03:50:39;;;;;;;0.10;0.10;;;;;;;21.29;50.81;98263.44;5052124;28;20049;-77
2022/07/28 03:53:13;;;;;;;0.10;0.10;;;;;;;21.10;50.72;98261.50;5049514;28;20703;-77
2022/07/28 03:55:40;;;;;;;0.10;0.10;;;;;;;21.21;50.91;98260.59;5061164;28;20048;-77
2022/07/28 03:58:06;;;;;;;0.10;0.10;;;;;;;21.22;50.05;98264.94;5056144;28;20045;-76
2022/07/28 04:00:33;;;;;;;0.10;0.10;;;;;;;21.28;49.83;98268.91;5062783;28;20180;-77
2022/07/28 04:02:59;;;;;;;0.10;0.10;;;;;;;21.18;50.70;98269.69;5061315;28;20583;-77
2022/07/28 04:05:26;;;;;;;0.00;0.00;;;;;;;21.21;50.83;98272.13;5063534;28;20080;-77
2022/07/28 04:07:52;;;;;;;0.10;0.10;;;;;;;21.29;49.95;98273.28;5045407;28;20147;-75
2022/07/28 04:10:19;;;;;;;0.10;0.10;;;;;;;21.01;50.99;98282.69;5056465;28;20460;-76
2022/07/28 04:12:51;;;;;;;0.10;0.10;;;;;;;20.73;51.09;98273.47;5054787;28;20132;-76
2022/07/28 04:15:18;;;;;;;0.10;0.10;;;;;;;20.77;51.87;98285.53;5055397;28;20084;-77
2022/07/28 04:17:47;;;;;;;0.10;0.10;;;;;;;20.63;51.65;98280.53;5073138;28;20091;-77
2022/07/28 04:20:18;;;;;;;0.10;0.10;;;;;;;20.65;51.93;98281.25;5055178;28;20048;-77
2022/07/28 04:22:46;;;;;;;0.10;0.10;;;;;;;20.66;52.57;98285.59;5050136;28;20056;-74
2022/07/28 04:25:14;;;;;;;0.10;0.10;;;;;;;20.53;52.15;98276.91;5063294;28;20087;-72
2022/07/28 04:27:42;;;;;;;0.10;0.10;;;;;;;20.85;53.34;98288.44;5053957;28;20082;-73
2022/07/28 04:30:12;;;;;;;0.10;0.10;;;;;;;21.14;52.11;98284.25;5055736;28;20052;-73
2022/07/28 04:32:39;;;;;;;0.10;0.10;;;;;;;21.27;51.65;98283.19;5052228;28;20098;-73
2022/07/28 04:35:07;;;;;;;0.10;0.10;;;;;;;21.13;51.80;98279.88;5052454;28;20058;-78
2022/07/28 04:37:34;;;;;;;0.10;0.10;;;;;;;20.84;52.36;98281.41;5052555;28;20142;-74
2022/07/28 04:40:01;;;;;;;0.10;0.10;;;;;;;20.87;53.10;98277.66;5050501;28;20086;-72
2022/07/28 04:42:28;;;;;;;0.10;0.10;;;;;;;20.93;52.78;98279.81;5048751;28;20048;-74
2022/07/28 04:44:55;;;;;;;0.10;0.10;;;;;;;20.97;52.24;98274.13;5052328;28;20055;-74
2022/07/28 04:47:23;;;;;;;0.10;0.10;;;;;;;20.98;52.29;98275.78;5058321;28;20084;-74
2022/07/28 04:49:50;;;;;;;0.10;0.10;;;;;;;20.87;52.19;98275.84;5058759;28;20085;-74
2022/07/28 04:52:17;;;;;;;0.10;0.10;;;;;;;20.37;53.79;98279.13;5050192;28;20084;-72
2022/07/28 04:54:44;;;;;;;0.10;0.10;;;;;;;20.30;54.50;98280.59;5053160;28;20139;-74
2022/07/28 04:57:11;;;;;;;0.10;0.10;;;;;;;20.57;55.34;98281.00;5054254;28;20115;-72
2022/07/28 04:59:40;;;;;;;0.10;0.10;;;;;;;20.37;54.79;98273.81;5044478;28;20078;-72
2022/07/28 05:02:07;;;;;;;0.10;0.10;;;;;;;20.41;54.94;98283.22;5058426;28;20113;-72
2022/07/28 05:04:34;;;;;;;0.10;0.10;;;;;;;20.82;53.97;98274.53;5056289;28;20137;-71
2022/07/28 05:07:01;;;;;;;0.10;0.10;;;;;;;20.61;54.79;98279.78;5058935;28;20492;-71
2022/07/28 05:09:37;;;;;;;0.10;0.10;;;;;;;20.90;54.19;98275.59;5050708;28;20161;-73
2022/07/28 05:12:05;;;;;;;0.10;0.10;;;;;;;20.68;54.18;98282.81;5056573;28;20072;-71
2022/07/28 05:14:32;;;;;;;0.10;0.10;;;;;;;20.97;54.34;98279.44;5049321;28;20076;-72
2022/07/28 05:16:58;;;;;;;0.10;0.10;;;;;;;21.14;54.24;98272.75;5051216;28;22277;-72
2022/07/28 05:19:25;;;;;;;0.10;0.10;;;;;;;21.13;53.83;98281.69;5050780;28;20052;-70
2022/07/28 05:21:51;;;;;;;0.10;0.10;;;;;;;20.55;54.27;98288.28;5055500;28;20140;-71
2022/07/28 05:24:18;;;;;;;0.10;0.10;;;;;;;20.20;55.08;98285.75;5054539;28;20067;-72
2022/07/28 05:26:44;;;;;;;0.10;0.10;;;;;;;20.66;55.93;98285.59;5050298;28;20443;-70
2022/07/28 05:29:11;;;;;;;0.10;0.10;;;;;;;21.03;54.88;98280.75;5051351;28;20057;-70
2022/07/28 05:31:38;;;;;;;0.10;0.10;;;;;;;20.75;54.05;98286.66;5043249;28;20084;-72
2022/07/28 05:34:05;;;;;;;0.20;0.20;;;;;;;20.37;55.48;98287.94;5051616;28;20061;-72
2022/07/28 05:36:31;;;;;;;0.10;0.10;;;;;;;20.23;56.59;98285.53;5053611;28;20077;-73
2022/07/28 05:38:58;;;;;;;0.10;0.10;;;;;;;20.49;55.54;98292.28;5057127;28;20508;-76
2022/07/28 05:41:24;;;;;;;0.10;0.10;;;;;;;20.72;55.15;98290.44;5054983;28;20041;-73
2022/07/28 05:43:51;;;;;;;0.10;0.10;;;;;;;20.30;55.91;98285.91;5055270;28;20492;-74
2022/07/28 05:46:19;;;;;;;0.10;0.10;;;;;;;20.32;56.73;98287.47;5050239;28;20045;-73
2022/07/28 05:48:46;;;;;;;0.10;0.10;;;;;;;20.23;57.45;98282.88;5048944;28;20052;-73
2022/07/28 05:51:13;;;;;;;0.10;0.10;;;;;;;20.62;57.38;98281.50;5048520;28;20060;-72
2022/07/28 05:53:39;;;;;;;0.10;0.10;;;;;;;21.06;55.98;98284.03;5056285;28;20080;-73
2022/07/28 05:56:06;;;;;;;0.10;0.10;;;;;;;21.10;55.44;98280.13;5060206;28;20045;-74
2022/07/28 05:58:33;;;;;;;0.10;0.10;;;;;;;21.31;54.45;98280.16;5059758;28;20047;-74
2022/07/28 06:01:00;;;;;;;0.10;0.10;;;;;;;21.19;55.30;98275.88;5063502;28;20625;-73
2022/07/28 06:03:31;;;;;;;0.10;0.10;;;;;;;21.59;54.29;98279.50;5055442;28;20080;-73
2022/07/28 06:05:58;;;;;;;0.10;0.10;;;;;;;21.22;54.16;98280.94;5044638;28;20129;-74
2022/07/28 06:08:42;;;;;;;0.10;0.10;;;;;;;20.87;55.66;98282.97;5058119;28;20513;-74
2022/07/28 06:11:08;;;;;;;0.10;0.10;;;;;;;20.88;55.16;98287.34;5060816;28;20048;-73
2022/07/28 06:13:35;;;;;;;0.10;0.10;;;;;;;20.85;55.93;98288.44;5061198;28;20468;-72
2022/07/28 06:16:03;;;;;;;0.10;0.10;;;;;;;21.43;55.36;98289.78;5060955;28;20053;-74
2022/07/28 06:18:35;;;;;;;0.10;0.10;;;;;;;21.74;54.13;98285.34;5059106;28;20088;-74
2022/07/28 06:21:01;;;;;;;0.10;0.10;;;;;;;21.82;53.76;98282.88;5053133;28;20087;-74
2022/07/28 06:23:28;;;;;;;0.10;0.10;;;;;;;22.27;53.16;98273.53;5049686;28;20049;-74
2022/07/28 06:25:55;;;;;;;0.10;0.10;;;;;;;22.26;51.65;98284.38;5064133;28;20127;-74
2022/07/28 06:28:22;;;;;;;0.10;0.10;;;;;;;22.83;50.95;98275.69;5053171;28;20052;-74
2022/07/28 06:30:48;;;;;;;0.10;0.10;;;;;;;22.77;50.75;98278.91;5059369;28;20095;-75
2022/07/28 06:33:16;;;;;;;0.10;0.10;;;;;;;22.94;51.40;98273.72;5047854;28;20048;-75
2022/07/28 06:35:43;;;;;;;0.10;0.10;;;;;;;23.09;50.62;98280.34;5061616;28;20055;-74
2022/07/28 06:38:18;;;;;;;0.10;0.10;;;;;;;23.00;50.72;98270.50;5050252;28;20588;-75
2022/07/28 06:40:45;;;;;;;0.10;0.10;;;;;;;22.96;50.82;98277.09;5047734;28;20045;-76
2022/07/28 06:43:13;;;;;;;0.10;0.10;;;;;;;23.01;50.76;98277.53;5045446;28;20047;-74
2022/07/28 06:45:40;;;;;;;0.10;0.10;;;;;;;23.19;50.46;98277.66;5061195;28;20049;-75
2022/07/28 06:48:07;;;;;;;0.10;0.10;;;;;;;23.19;49.95;98270.50;5064095;28;20052;-75
2022/07/28 06:50:37;;;;;;;0.10;0.10;;;;;;;23.22;50.13;98270.22;5060799;28;20056;-75
2022/07/28 06:53:04;;;;;;;0.10;0.10;;;;;;;23.35;50.00;98269.13;5057647;28;20052;-75
2022/07/28 06:55:31;;;;;;;0.10;0.10;;;;;;;23.47;50.94;98273.34;5051257;28;20056;-74
2022/07/28 06:58:02;;;;;;;0.10;0.10;;;;;;;23.51;51.29;98272.06;5052345;28;21979;-73
2022/07/28 07:00:28;;;;;;;0.10;0.10;;;;;;;23.36;50.45;98270.78;5060782;28;20501;-73
2022/07/28 07:02:55;;;;;;;0.10;0.10;;;;;;;23.60;50.56;98264.03;5061593;28;20049;-73
2022/07/28 07:05:22;;;;;;;0.10;0.10;;;;;;;23.80;50.03;98262.97;5057464;28;20091;-74
2022/07/28 07:07:49;;;;;;;0.00;0.00;;;;;;;23.82;49.67;98266.34;5050456;28;20065;-75
2022/07/28 07:10:16;;;;;;;0.00;0.00;;;;;;;23.73;50.12;98269.03;5047113;28;20060;-72
2022/07/28 07:12:42;;;;;;;0.00;0.00;;;;;;;23.80;49.53;98262.13;5047856;28;20055;-75
2022/07/28 07:15:09;;;;;;;0.00;0.00;;;;;;;23.90;49.71;98261.13;5053010;28;20072;-74
2022/07/28 07:17:36;;;;;;;0.00;0.00;;;;;;;24.38;49.15;98254.75;5059389;28;20072;-74
2022/07/28 07:20:07;;;;;;;0.00;0.00;;;;;;;24.33;49.68;98255.19;5055415;28;20044;-74
2022/07/28 07:22:34;;;;;;;0.10;0.10;;;;;;;24.42;49.17;98253.44;5058229;28;20072;-73
2022/07/28 07:25:14;;;;;;;0.10;0.10;;;;;;;24.35;49.04;98247.84;5051501;28;20488;-74
2022/07/28 07:27:41;;;;;;;0.10;0.10;;;;;;;24.28;49.14;98252.13;5048932;28;20139;-74
2022/07/28 07:30:08;;;;;;;0.10;0.10;;;;;;;24.76;48.43;98241.13;5046396;28;20431;-74
2022/07/28 07:32:35;;;;;;;0.10;0.10;;;;;;;24.95;48.07;98237.47;5056999;28;20064;-75
2022/07/28 07:35:03;;;;;;;0.00;0.00;;;;;;;25.59;47.16;98237.19;5057826;28;20816;-74
2022/07/28 07:37:31;;;;;;;0.00;0.00;;;;;;;25.28;47.04;98244.78;5055332;28;20057;-74
2022/07/28 07:39:59;;;;;;;0.10;0.10;;;;;;;25.12;47.60;98234.78;5059868;28;20041;-74
2022/07/28 07:42:25;;;;;;;0.10;0.10;;;;;;;25.38;47.03;98240.19;5054095;28;20084;-74
2022/07/28 07:44:53;;;;;;;0.10;0.10;;;;;;;25.49;47.15;98236.44;5051870;28;20094;-74
2022/07/28 07:47:20;;;;;;;0.00;0.00;;;;;;;25.27;49.08;98238.59;5053396;28;20063;-75
2022/07/28 07:49:46;;;;;;;0.10;0.10;;;;;;;25.84;47.16;98239.88;5052611;28;20191;-74
2022/07/28 07:52:13;;;;;;;0.00;0.00;;;;;;;26.03;46.12;98244.16;5056894;28;20079;-74
2022/07/28 07:54:40;;;;;;;0.00;0.00;;;;;;;26.61;45.56;98238.88;5054288;28;20767;-74
2022/07/28 07:57:07;;;;;;;0.00;0.00;;;;;;;27.32;44.27;98236.50;5059093;28;20504;-74
2022/07/28 07:59:34;;;;;;;0.10;0.10;;;;;;;28.91;40.14;98227.28;5055624;28;20041;-74
2022/07/28 08:02:00;;;;;;;0.10;0.10;;;;;;;30.14;37.97;98231.44;5051494;28;20080;-74
2022/07/28 08:04:27;;;;;;;0.00;0.00;;;;;;;30.57;36.68;98233.31;5047922;28;20049;-74
2022/07/28 08:06:54;;;;;;;0.10;0.10;;;;;;;31.19;36.24;98231.72;5056268;28;20045;-74
2022/07/28 08:09:21;;;;;;;0.10;0.10;;;;;;;31.22;35.01;98225.91;5058485;28;20127;-75
2022/07/28 08:11:48;;;;;;;0.10;0.10;;;;;;;30.89;36.40;98221.19;5054936;28;20151;-77
2022/07/28 08:14:15;;;;;;;0.10;0.10;;;;;;;30.00;37.42;98233.13;5059670;28;20044;-76
2022/07/28 08:16:43;;;;;;;0.03;0.03;;;;;;;29.16;39.75;98226.09;5049090;28;20072;-75
2022/07/28 08:19:10;;;;;;;0.10;0.10;;;;;;;28.47;41.32;98234.25;5048884;28;20045;-75
2022/07/28 08:21:37;;;;;;;0.00;0.00;;;;;;;27.70;43.10;98230.44;5058302;28;20051;-74
2022/07/28 08:24:04;;;;;;;0.00;0.00;;;;;;;27.70;42.01;98230.44;5055127;28;22196;-74
2022/07/28 08:26:30;;;;;;;0.10;0.10;;;;;;;27.53;42.63;98230.63;5051372;28;20061;-74
2022/07/28 08:28:57;;;;;;;0.05;0.05;;;;;;;27.37;43.19;98236.84;5051684;28;20055;-74
2022/07/28 08:31:24;;;;;;;0.10;0.10;;;;;;;27.14;45.22;98227.75;5055175;28;21051;-74
2022/07/28 08:33:51;;;;;;;0.10;0.10;;;;;;;27.17;44.54;98228.25;5051633;28;20179;-74
2022/07/28 08:36:21;;;;;;;0.10;0.10;;;;;;;27.00;44.69;98231.94;5044299;28;20046;-74
2022/07/28 08:38:47;;;;;;;0.10;0.10;;;;;;;26.94;44.82;98226.41;5067973;28;20529;-75
2022/07/28 08:41:28;;;;;;;0.05;0.05;;;;;;;27.09;45.33;98219.34;5057965;28;20667;-74
2022/07/28 08:44:01;;;;;;;0.00;0.00;;;;;;;27.16;45.36;98220.34;5052311;28;20459;-75
2022/07/28 08:46:33;;;;;;;0.00;0.00;;;;;;;27.17;44.80;98222.03;5065214;28;20049;-75
2022/07/28 08:49:03;;;;;;;0.10;0.10;;;;;;;27.32;45.02;98230.25;5059224;28;20048;-74
2022/07/28 08:51:30;;;;;;;0.10;0.10;;;;;;;27.19;44.71;98220.88;5048150;28;20049;-74
2022/07/28 08:53:58;;;;;;;0.10;0.10;;;;;;;27.25;44.14;98222.03;5053829;28;20118;-75
2022/07/28 08:56:25;;;;;;;0.10;0.10;;;;;;;27.26;44.56;98219.19;5059689;28;20086;-75
2022/07/28 08:58:52;;;;;;;0.10;0.10;;;;;;;27.32;44.72;98220.34;5059138;28;20052;-75
2022/07/28 09:01:18;;;;;;;0.00;0.00;;;;;;;27.42;44.14;98207.59;5054532;28;20463;-73
2022/07/28 09:03:45;;;;;;;0.10;0.10;;;;;;;26.96;45.46;98209.06;5056763;28;20481;-74
2022/07/28 09:06:12;;;;;;;0.10;0.10;;;;;;;26.92;45.63;98212.25;5058407;28;20514;-75
2022/07/28 09:08:38;;;;;;;0.00;0.00;;;;;;;27.21;45.86;98209.94;5061387;28;20145;-74
2022/07/28 09:11:08;;;;;;;0.10;0.10;;;;;;;27.03;44.95;98204.72;5050652;28;20179;-74
2022/07/28 09:13:35;;;;;;;0.10;0.10;;;;;;;26.91;45.38;98198.00;5068240;28;20127;-74
2022/07/28 09:16:04;;;;;;;0.10;0.10;;;;;;;27.09;44.88;98203.22;5056487;28;21551;-73
2022/07/28 09:18:30;;;;;;;0.00;0.00;;;;;;;27.24;44.63;98198.84;5055061;28;20052;-74
2022/07/28 09:20:57;;;;;;;0.10;0.10;;;;;;;27.55;45.35;98209.78;5059256;28;20590;-74
2022/07/28 09:23:24;;;;;;;0.10;0.10;;;;;;;27.57;44.17;98205.88;5052533;28;20659;-73
2022/07/28 09:26:10;;;;;;;0.10;0.10;;;;;;;27.53;43.91;98201.88;5047150;28;20110;-74
2022/07/28 09:28:57;;;;;;;0.10;0.10;;;;;;;27.26;44.25;98200.38;5053151;28;20757;-72
2022/07/28 09:31:26;;;;;;;0.00;0.00;;;;;;;27.56;44.25;98195.31;5060550;28;20101;-73
2022/07/28 09:33:55;;;;;;;0.10;0.10;;;;;;;28.05;43.25;98191.50;5061182;28;20390;-73
2022/07/28 09:36:22;;;;;;;0.10;0.10;;;;;;;27.87;44.11;98191.72;5056120;28;20078;-73
2022/07/28 09:38:48;;;;;;;0.10;0.10;;;;;;;27.81;43.86;98197.75;5058690;28;20128;-73
2022/07/28 09:41:18;;;;;;;0.00;0.00;;;;;;;28.06;42.84;98187.81;5054881;28;20076;-73
2022/07/28 09:43:45;;;;;;;0.10;0.10;;;;;;;28.36;42.65;98191.53;5048545;28;20057;-73
2022/07/28 09:46:21;;;;;;;0.10;0.10;;;;;;;28.34;42.63;98191.72;5057618;28;20048;-73
2022/07/28 09:48:48;;;;;;;0.00;0.00;;;;;;;28.21;43.67;98180.66;5057517;28;20121;-76
2022/07/28 09:51:17;;;;;;;0.10;0.10;;;;;;;28.19;42.86;98185.38;5056765;28;20055;-74
2022/07/28 09:53:44;;;;;;;0.10;0.10;;;;;;;28.20;43.10;98179.00;5053340;28;20113;-74
2022/07/28 09:56:11;;;;;;;0.10;0.10;;;;;;;28.32;43.34;98176.75;5061382;28;20127;-74
2022/07/28 09:58:39;;;;;;;0.00;0.00;;;;;;;28.46;43.13;98170.59;5065420;28;20405;-74
2022/07/28 10:01:11;;;;;;;0.10;0.10;;;;;;;28.38;42.02;98171.47;5049882;28;20045;-76
2022/07/28 10:03:40;;;;;;;0.10;0.10;;;;;;;28.50;43.34;98167.38;5064840;28;20061;-72
2022/07/28 10:06:13;;;;;;;0.10;0.10;;;;;;;28.41;42.11;98162.19;5057511;28;20056;-73
2022/07/28 10:08:44;;;;;;;0.10;0.10;;;;;;;28.50;41.71;98159.28;5054969;28;20139;-72
2022/07/28 10:11:14;;;;;;;0.00;0.00;;;;;;;28.54;41.54;98163.28;5056178;28;20100;-74
2022/07/28 10:14:04;;;;;;;0.10;0.10;;;;;;;28.78;41.83;98159.63;5056454;28;20114;-73
2022/07/28 10:16:40;;;;;;;0.00;0.00;;;;;;;28.83;41.80;98159.09;5051287;28;20116;-74
2022/07/28 10:19:07;;;;;;;0.10;0.10;;;;;;;28.31;41.46;98161.56;5052976;28;20056;-75
2022/07/28 10:21:42;;;;;;;0.10;0.10;;;;;;;28.16;42.41;98163.34;5063128;28;20087;-72
2022/07/28 10:24:15;;;;;;;0.10;0.10;;;;;;;28.56;42.52;98153.16;5060600;28;20041;-74
2022/07/28 10:26:44;;;;;;;0.10;0.10;;;;;;;28.69;42.17;98154.47;5059056;28;20052;-74
2022/07/28 10:29:20;;;;;;;0.00;0.00;;;;;;;28.61;42.07;98152.66;5058042;28;20607;-78
2022/07/28 10:32:04;;;;;;;0.10;0.10;;;;;;;28.65;41.16;98145.88;5054969;28;20094;-73
2022/07/28 10:34:34;;;;;;;0.10;0.10;;;;;;;28.85;41.08;98144.41;5051264;28;20052;-74
2022/07/28 10:37:08;;;;;;;0.00;0.00;;;;;;;28.82;41.27;98146.59;5062439;28;20044;-74
2022/07/28 10:39:45;;;;;;;0.10;0.10;;;;;;;28.98;41.66;98141.94;5060473;28;20139;-73
2022/07/28 10:42:12;;;;;;;0.10;0.10;;;;;;;28.93;40.51;98136.22;5062411;28;20052;-73
2022/07/28 10:44:40;;;;;;;0.10;0.10;;;;;;;28.92;40.51;98134.56;5061063;28;20070;-74
2022/07/28 10:47:11;;;;;;;0.10;0.10;;;;;;;29.35;40.32;98142.97;5060616;28;20090;-74
2022/07/28 10:49:46;;;;;;;0.10;0.10;;;;;;;29.54;39.85;98127.06;5048554;28;20508;-74
2022/07/28 10:52:16;;;;;;;0.10;0.10;;;;;;;29.41;39.63;98131.44;5055616;28;20052;-75
2022/07/28 10:55:29;;;;;;;0.10;0.10;;;;;;;29.43;39.42;98132.94;5047246;28;20519;-76
2022/07/28 10:58:13;;;;;;;0.10;0.10;;;;;;;29.08;40.43;98123.63;5056531;28;20052;-75
2022/07/28 11:00:48;;;;;;;0.00;0.00;;;;;;;29.39;39.49;98128.94;5065455;28;22840;-76
2022/07/28 11:03:46;;;;;;;0.10;0.10;;;;;;;29.48;39.28;98132.38;5044792;28;20161;-73
2022/07/28 11:06:34;;;;;;;0.10;0.10;;;;;;;29.53;38.95;98122.72;5050956;28;20127;-74
2022/07/28 11:09:16;;;;;;;0.10;0.10;;;;;;;29.69;38.48;98135.19;5054696;28;20049;-73
2022/07/28 11:11:53;;;;;;;0.10;0.10;;;;;;;29.55;37.20;98120.66;5055652;28;20145;-75
2022/07/28 11:14:26;;;;;;;0.10;0.10;;;;;;;29.78;38.52;98118.75;5055977;28;20072;-73
2022/07/28 11:16:59;;;;;;;0.10;0.10;;;;;;;29.68;38.25;98112.75;5056525;28;20382;-72
2022/07/28 11:19:28;;;;;;;0.00;0.00;;;;;;;30.17;38.22;98107.59;5061023;28;20044;-72
2022/07/28 11:22:16;;;;;;;0.10;0.10;;;;;;;30.20;36.92;98111.81;5058279;28;20505;-73
2022/07/28 11:24:56;;;;;;;0.10;0.10;;;;;;;29.86;36.99;98121.34;5042915;28;20054;-73
2022/07/28 11:27:38;;;;;;;0.10;0.10;;;;;;;29.83;38.15;98116.31;5049400;28;20056;-75
2022/07/28 11:30:06;;;;;;;0.10;0.10;;;;;;;29.98;37.66;98108.19;5056906;28;20077;-73
2022/07/28 11:32:52;;;;;;;0.10;0.10;;;;;;;30.14;37.29;98107.97;5061230;28;20086;-73
2022/07/28 11:35:20;;;;;;;0.10;0.10;;;;;;;30.12;36.42;98112.75;5057843;28;20047;-75
2022/07/28 11:38:02;;;;;;;0.10;0.10;;;;;;;30.34;36.37;98108.22;5049082;28;20109;-73
2022/07/28 11:40:36;;;;;;;0.10;0.10;;;;;;;30.40;36.97;98105.63;5044679;28;20059;-73
2022/07/28 11:43:30;;;;;;;0.10;0.10;;;;;;;30.01;36.90;98112.38;5052216;28;20048;-74
2022/07/28 11:46:04;;;;;;;0.10;0.10;;;;;;;29.65;38.01;98113.13;5053850;28;20049;-73
2022/07/28 11:48:40;;;;;;;0.10;0.10;;;;;;;29.59;37.92;98113.88;5061543;28;20041;-74